sensor_id;sensor_type;location;lat;lon;timestamp;pressure;altitude;pressure_sealevel;temperature;humidity
27304;BME280;14791;52.392;13.092;2022-10-22T00:00:52;100642.41;;;20.60;54.88
27304;BME280;14791;52.392;13.092;2022-10-22T00:03:22;100645.78;;;20.58;54.91
27304;BME280;14791;52.392;13.092;2022-10-22T00:05:51;100643.41;;;20.55;54.97
27304;BME280;14791;52.392;13.092;2022-10-22T00:08:20;100651.55;;;20.55;55.04
27304;BME280;14791;52.392;13.092;2022-10-22T00:10:49;100643.04;;;20.54;55.08
27304;BME280;14791;52.392;13.092;2022-10-22T00:13:20;100646.42;;;20.52;55.11
27304;BME280;14791;52.392;13.092;2022-10-22T00:15:49;100641.14;;;20.51;55.13
27304;BME280;14791;52.392;13.092;2022-10-22T00:18:18;100641.29;;;20.49;55.15
27304;BME280;14791;52.392;13.092;2022-10-22T00:20:47;100633.16;;;20.49;55.14
27304;BME280;14791;52.392;13.092;2022-10-22T00:23:16;100621.45;;;20.49;55.09
27304;BME280;14791;52.392;13.092;2022-10-22T00:25:44;100615.19;;;20.48;54.99
27304;BME280;14791;52.392;13.092;2022-10-22T00:28:13;100623.66;;;20.49;54.87
27304;BME280;14791;52.392;13.092;2022-10-22T00:30:42;100619.77;;;20.48;54.81
27304;BME280;14791;52.392;13.092;2022-10-22T00:33:11;100610.79;;;20.47;54.77
27304;BME280;14791;52.392;13.092;2022-10-22T00:35:40;100608.74;;;20.45;54.69
27304;BME280;14791;52.392;13.092;2022-10-22T00:38:09;100612.95;;;20.44;54.64
27304;BME280;14791;52.392;13.092;2022-10-22T00:40:38;100614.14;;;20.41;54.62
27304;BME280;14791;52.392;13.092;2022-10-22T00:43:15;100616.67;;;20.38;54.55
27304;BME280;14791;52.392;13.092;2022-10-22T00:45:39;100624.63;;;20.36;54.56
27304;BME280;14791;52.392;13.092;2022-10-22T00:48:17;100638.15;;;20.32;54.59
27304;BME280;14791;52.392;13.092;2022-10-22T00:50:54;100646.25;;;20.28;54.67
27304;BME280;14791;52.392;13.092;2022-10-22T00:53:42;100649.11;;;20.22;54.79
27304;BME280;14791;52.392;13.092;2022-10-22T00:56:11;100649.40;;;20.15;54.92
27304;BME280;14791;52.392;13.092;2022-10-22T00:58:46;100652.91;;;20.07;55.12
27304;BME280;14791;52.392;13.092;2022-10-22T01:01:17;100664.08;;;20.04;55.26
27304;BME280;14791;52.392;13.092;2022-10-22T01:03:48;100658.95;;;20.01;55.34
27304;BME280;14791;52.392;13.092;2022-10-22T01:06:26;100657.77;;;20.00;55.43
27304;BME280;14791;52.392;13.092;2022-10-22T01:09:20;100648.77;;;19.99;55.48
27304;BME280;14791;52.392;13.092;2022-10-22T01:15:05;100653.48;;;19.93;55.68
27304;BME280;14791;52.392;13.092;2022-10-22T01:23:30;100615.34;;;19.90;55.78
27304;BME280;14791;52.392;13.092;2022-10-22T01:26:07;100614.14;;;19.89;55.77
27304;BME280;14791;52.392;13.092;2022-10-22T01:29:06;100608.02;;;19.87;55.75
27304;BME280;14791;52.392;13.092;2022-10-22T01:31:33;100615.31;;;19.86;55.81
27304;BME280;14791;52.392;13.092;2022-10-22T01:34:02;100619.52;;;19.85;55.83
27304;BME280;14791;52.392;13.092;2022-10-22T01:36:32;100616.16;;;19.87;55.80
27304;BME280;14791;52.392;13.092;2022-10-22T01:39:03;100622.63;;;19.90;55.74
27304;BME280;14791;52.392;13.092;2022-10-22T01:41:34;100632.12;;;19.94;55.65
27304;BME280;14791;52.392;13.092;2022-10-22T01:44:03;100628.25;;;19.96;55.62
27304;BME280;14791;52.392;13.092;2022-10-22T01:46:32;100632.17;;;19.98;55.60
27304;BME280;14791;52.392;13.092;2022-10-22T01:49:26;100636.94;;;20.00;55.51
27304;BME280;14791;52.392;13.092;2022-10-22T01:52:13;100624.22;;;20.01;55.47
27304;BME280;14791;52.392;13.092;2022-10-22T01:54:44;100624.37;;;19.99;55.45
27304;BME280;14791;52.392;13.092;2022-10-22T01:57:25;100630.63;;;19.95;55.45
27304;BME280;14791;52.392;13.092;2022-10-22T02:00:06;100634.36;;;19.94;55.41
27304;BME280;14791;52.392;13.092;2022-10-22T02:05:19;100641.61;;;19.94;55.35
27304;BME280;14791;52.392;13.092;2022-10-22T02:07:49;100648.76;;;19.95;55.32
27304;BME280;14791;52.392;13.092;2022-10-22T02:10:18;100648.38;;;19.90;55.32
27304;BME280;14791;52.392;13.092;2022-10-22T02:12:51;100653.80;;;19.90;55.31
27304;BME280;14791;52.392;13.092;2022-10-22T02:15:22;100645.16;;;19.90;55.27
27304;BME280;14791;52.392;13.092;2022-10-22T02:17:52;100639.23;;;19.91;55.24
27304;BME280;14791;52.392;13.092;2022-10-22T02:20:28;100646.00;;;19.91;55.19
27304;BME280;14791;52.392;13.092;2022-10-22T02:22:58;100638.89;;;19.90;55.19
27304;BME280;14791;52.392;13.092;2022-10-22T02:25:36;100637.69;;;19.88;55.18
27304;BME280;14791;52.392;13.092;2022-10-22T02:28:18;100636.00;;;19.87;55.15
27304;BME280;14791;52.392;13.092;2022-10-22T02:30:51;100641.56;;;19.86;55.18
27304;BME280;14791;52.392;13.092;2022-10-22T02:33:25;100642.37;;;19.82;55.20
27304;BME280;14791;52.392;13.092;2022-10-22T02:35:54;100647.45;;;19.81;55.26
27304;BME280;14791;52.392;13.092;2022-10-22T02:38:24;100645.25;;;19.81;55.27
27304;BME280;14791;52.392;13.092;2022-10-22T02:40:54;100641.19;;;19.81;55.24
27304;BME280;14791;52.392;13.092;2022-10-22T02:43:24;100638.48;;;19.81;55.23
27304;BME280;14791;52.392;13.092;2022-10-22T02:45:53;100641.52;;;19.82;55.26
27304;BME280;14791;52.392;13.092;2022-10-22T02:48:22;100647.45;;;19.81;55.25
27304;BME280;14791;52.392;13.092;2022-10-22T02:50:50;100643.24;;;19.83;55.29
27304;BME280;14791;52.392;13.092;2022-10-22T02:53:19;100642.22;;;19.84;55.28
27304;BME280;14791;52.392;13.092;2022-10-22T02:55:48;100640.87;;;19.84;55.28
27304;BME280;14791;52.392;13.092;2022-10-22T02:58:17;100632.59;;;19.85;55.30
27304;BME280;14791;52.392;13.092;2022-10-22T03:00:47;100625.30;;;19.86;55.27
27304;BME280;14791;52.392;13.092;2022-10-22T03:03:16;100625.16;;;19.87;55.25
27304;BME280;14791;52.392;13.092;2022-10-22T03:05:45;100633.11;;;19.89;55.21
27304;BME280;14791;52.392;13.092;2022-10-22T03:08:13;100629.05;;;19.89;55.17
27304;BME280;14791;52.392;13.092;2022-10-22T03:10:43;100631.25;;;19.89;55.16
27304;BME280;14791;52.392;13.092;2022-10-22T03:13:11;100629.41;;;19.90;55.10
27304;BME280;14791;52.392;13.092;2022-10-22T03:15:40;100631.76;;;19.89;55.08
27304;BME280;14791;52.392;13.092;2022-10-22T03:18:09;100636.66;;;19.89;55.05
27304;BME280;14791;52.392;13.092;2022-10-22T03:20:38;100625.16;;;19.87;55.00
27304;BME280;14791;52.392;13.092;2022-10-22T03:23:07;100626.00;;;19.88;54.91
27304;BME280;14791;52.392;13.092;2022-10-22T03:25:38;100629.70;;;19.87;54.87
27304;BME280;14791;52.392;13.092;2022-10-22T03:28:09;100628.02;;;19.86;54.84
27304;BME280;14791;52.392;13.092;2022-10-22T03:30:39;100629.69;;;19.83;54.86
27304;BME280;14791;52.392;13.092;2022-10-22T03:33:08;100631.19;;;19.81;54.88
27304;BME280;14791;52.392;13.092;2022-10-22T03:35:39;100625.92;;;19.80;54.88
27304;BME280;14791;52.392;13.092;2022-10-22T03:38:09;100636.42;;;19.79;54.88
27304;BME280;14791;52.392;13.092;2022-10-22T03:40:38;100631.66;;;19.76;54.95
27304;BME280;14791;52.392;13.092;2022-10-22T03:43:07;100637.41;;;19.78;55.00
27304;BME280;14791;52.392;13.092;2022-10-22T03:45:36;100638.10;;;19.75;55.07
27304;BME280;14791;52.392;13.092;2022-10-22T03:48:05;100649.93;;;19.74;55.14
27304;BME280;14791;52.392;13.092;2022-10-22T03:50:34;100643.66;;;19.74;55.18
27304;BME280;14791;52.392;13.092;2022-10-22T03:53:03;100641.47;;;19.73;55.20
27304;BME280;14791;52.392;13.092;2022-10-22T03:55:33;100653.30;;;19.72;55.23
27304;BME280;14791;52.392;13.092;2022-10-22T03:58:03;100658.02;;;19.70;55.29
27304;BME280;14791;52.392;13.092;2022-10-22T04:00:34;100664.79;;;19.70;55.29
27304;BME280;14791;52.392;13.092;2022-10-22T04:03:03;100660.39;;;19.69;55.34
27304;BME280;14791;52.392;13.092;2022-10-22T04:05:32;100661.41;;;19.68;55.36
27304;BME280;14791;52.392;13.092;2022-10-22T04:08:01;100664.59;;;19.68;55.34
27304;BME280;14791;52.392;13.092;2022-10-22T04:10:30;100669.54;;;19.68;55.33
27304;BME280;14791;52.392;13.092;2022-10-22T04:12:59;100680.71;;;19.69;55.32
27304;BME280;14791;52.392;13.092;2022-10-22T04:15:28;100679.02;;;19.68;55.31
27304;BME280;14791;52.392;13.092;2022-10-22T04:17:57;100683.93;;;19.69;55.32
27304;BME280;14791;52.392;13.092;2022-10-22T04:20:26;100682.58;;;19.69;55.28
27304;BME280;14791;52.392;13.092;2022-10-22T04:22:55;100675.80;;;19.69;55.27
27304;BME280;14791;52.392;13.092;2022-10-22T04:25:23;100674.95;;;19.68;55.27
27304;BME280;14791;52.392;13.092;2022-10-22T04:27:52;100676.98;;;19.70;55.28
27304;BME280;14791;52.392;13.092;2022-10-22T04:30:21;100680.38;;;19.68;55.26
27304;BME280;14791;52.392;13.092;2022-10-22T04:32:50;100678.29;;;19.66;55.32
27304;BME280;14791;52.392;13.092;2022-10-22T04:35:19;100677.92;;;19.65;55.36
27304;BME280;14791;52.392;13.092;2022-10-22T04:37:48;100677.92;;;19.65;55.41
27304;BME280;14791;52.392;13.092;2022-10-22T04:40:16;100670.67;;;19.66;55.43
27304;BME280;14791;52.392;13.092;2022-10-22T04:42:45;100668.30;;;19.67;55.42
27304;BME280;14791;52.392;13.092;2022-10-22T04:45:14;100659.18;;;19.68;55.38
27304;BME280;14791;52.392;13.092;2022-10-22T04:47:43;100658.70;;;19.68;55.39
27304;BME280;14791;52.392;13.092;2022-10-22T04:50:12;100658.70;;;19.68;55.34
27304;BME280;14791;52.392;13.092;2022-10-22T04:52:41;100651.05;;;19.68;55.25
27304;BME280;14791;52.392;13.092;2022-10-22T04:55:10;100656.95;;;19.67;55.20
27304;BME280;14791;52.392;13.092;2022-10-22T04:57:39;100662.25;;;19.69;55.14
27304;BME280;14791;52.392;13.092;2022-10-22T05:00:08;100663.39;;;19.66;55.14
27304;BME280;14791;52.392;13.092;2022-10-22T05:02:37;100672.50;;;19.65;55.12
27304;BME280;14791;52.392;13.092;2022-10-22T05:05:07;100671.66;;;19.65;55.14
27304;BME280;14791;52.392;13.092;2022-10-22T05:07:36;100670.95;;;19.63;55.11
27304;BME280;14791;52.392;13.092;2022-10-22T05:10:05;100672.48;;;19.61;55.13
27304;BME280;14791;52.392;13.092;2022-10-22T05:12:34;100674.83;;;19.60;55.09
27304;BME280;14791;52.392;13.092;2022-10-22T05:15:04;100676.84;;;19.58;55.05
27304;BME280;14791;52.392;13.092;2022-10-22T05:17:35;100677.86;;;19.57;55.04
27304;BME280;14791;52.392;13.092;2022-10-22T05:20:05;100677.48;;;19.56;55.04
27304;BME280;14791;52.392;13.092;2022-10-22T05:22:34;100674.11;;;19.54;55.10
27304;BME280;14791;52.392;13.092;2022-10-22T05:25:03;100678.83;;;19.52;55.16
27304;BME280;14791;52.392;13.092;2022-10-22T05:27:32;100679.34;;;19.51;55.19
27304;BME280;14791;52.392;13.092;2022-10-22T05:30:01;100679.11;;;19.49;55.24
27304;BME280;14791;52.392;13.092;2022-10-22T05:32:30;100682.84;;;19.48;55.26
27304;BME280;14791;52.392;13.092;2022-10-22T05:34:58;100686.56;;;19.47;55.24
27304;BME280;14791;52.392;13.092;2022-10-22T05:37:27;100687.92;;;19.47;55.19
27304;BME280;14791;52.392;13.092;2022-10-22T05:39:56;100690.63;;;19.47;55.11
27304;BME280;14791;52.392;13.092;2022-10-22T05:42:25;100691.62;;;19.46;55.04
27304;BME280;14791;52.392;13.092;2022-10-22T05:44:55;100695.34;;;19.45;54.96
27304;BME280;14791;52.392;13.092;2022-10-22T05:47:24;100693.29;;;19.43;54.92
27304;BME280;14791;52.392;13.092;2022-10-22T05:49:53;100695.63;;;19.42;54.89
27304;BME280;14791;52.392;13.092;2022-10-22T05:52:24;100692.25;;;19.40;54.84
27304;BME280;14791;52.392;13.092;2022-10-22T05:54:52;100695.23;;;19.37;54.85
27304;BME280;14791;52.392;13.092;2022-10-22T05:57:21;100701.81;;;19.34;54.84
27304;BME280;14791;52.392;13.092;2022-10-22T05:59:50;100696.57;;;19.32;54.86
27304;BME280;14791;52.392;13.092;2022-10-22T06:02:19;100690.45;;;19.30;54.85
27304;BME280;14791;52.392;13.092;2022-10-22T06:04:48;100688.91;;;19.28;54.85
27304;BME280;14791;52.392;13.092;2022-10-22T06:07:17;100699.36;;;19.27;54.88
27304;BME280;14791;52.392;13.092;2022-10-22T06:09:46;100699.53;;;19.25;54.97
27304;BME280;14791;52.392;13.092;2022-10-22T06:12:16;100711.72;;;19.25;55.05
27304;BME280;14791;52.392;13.092;2022-10-22T06:14:45;100706.95;;;19.23;55.11
27304;BME280;14791;52.392;13.092;2022-10-22T06:17:14;100711.02;;;19.23;55.11
27304;BME280;14791;52.392;13.092;2022-10-22T06:19:43;100717.27;;;19.24;55.14
27304;BME280;14791;52.392;13.092;2022-10-22T06:22:12;100719.84;;;19.25;55.18
27304;BME280;14791;52.392;13.092;2022-10-22T06:24:41;100712.56;;;19.26;55.21
27304;BME280;14791;52.392;13.092;2022-10-22T06:27:09;100719.16;;;19.27;55.23
27304;BME280;14791;52.392;13.092;2022-10-22T06:29:38;100727.01;;;19.30;55.24
27304;BME280;14791;52.392;13.092;2022-10-22T06:32:07;100727.20;;;19.33;55.26
27304;BME280;14791;52.392;13.092;2022-10-22T06:34:36;100731.46;;;19.36;55.29
27304;BME280;14791;52.392;13.092;2022-10-22T06:37:05;100728.95;;;19.38;55.28
27304;BME280;14791;52.392;13.092;2022-10-22T06:39:34;100736.77;;;19.41;55.31
27304;BME280;14791;52.392;13.092;2022-10-22T06:42:03;100739.33;;;19.43;55.36
27304;BME280;14791;52.392;13.092;2022-10-22T06:44:33;100736.95;;;19.44;55.40
27304;BME280;14791;52.392;13.092;2022-10-22T06:47:02;100739.22;;;19.48;55.42
27304;BME280;14791;52.392;13.092;2022-10-22T06:49:31;100747.91;;;19.52;55.43
27304;BME280;14791;52.392;13.092;2022-10-22T06:52:00;100743.86;;;19.56;55.47
27304;BME280;14791;52.392;13.092;2022-10-22T06:54:29;100742.56;;;19.60;55.44
27304;BME280;14791;52.392;13.092;2022-10-22T06:56:58;100744.81;;;19.65;55.45
27304;BME280;14791;52.392;13.092;2022-10-22T06:59:27;100752.00;;;19.70;55.42
27304;BME280;14791;52.392;13.092;2022-10-22T07:01:56;100750.19;;;19.74;55.38
27304;BME280;14791;52.392;13.092;2022-10-22T07:04:25;100749.22;;;19.80;55.31
27304;BME280;14791;52.392;13.092;2022-10-22T07:06:57;100745.20;;;19.84;55.27
27304;BME280;14791;52.392;13.092;2022-10-22T07:09:26;100745.95;;;19.90;55.27
27304;BME280;14791;52.392;13.092;2022-10-22T07:11:55;100746.48;;;19.93;55.25
27304;BME280;14791;52.392;13.092;2022-10-22T07:14:24;100755.51;;;19.98;55.33
27304;BME280;14791;52.392;13.092;2022-10-22T07:16:52;100761.31;;;20.03;55.32
27304;BME280;14791;52.392;13.092;2022-10-22T07:19:21;100769.48;;;20.07;55.29
27304;BME280;14791;52.392;13.092;2022-10-22T07:21:50;100770.89;;;20.11;55.34
27304;BME280;14791;52.392;13.092;2022-10-22T07:24:19;100764.30;;;20.14;55.32
27304;BME280;14791;52.392;13.092;2022-10-22T07:26:48;100770.77;;;20.17;55.39
27304;BME280;14791;52.392;13.092;2022-10-22T07:29:17;100768.57;;;20.21;55.43
27304;BME280;14791;52.392;13.092;2022-10-22T07:31:46;100777.59;;;20.25;55.44
27304;BME280;14791;52.392;13.092;2022-10-22T07:34:15;100784.42;;;20.29;55.43
27304;BME280;14791;52.392;13.092;2022-10-22T07:36:44;100783.81;;;20.35;55.47
27304;BME280;14791;52.392;13.092;2022-10-22T07:39:12;100789.61;;;20.40;55.48
27304;BME280;14791;52.392;13.092;2022-10-22T07:41:41;100793.20;;;20.45;55.52
27304;BME280;14791;52.392;13.092;2022-10-22T07:44:10;100803.41;;;20.51;55.51
27304;BME280;14791;52.392;13.092;2022-10-22T07:46:39;100804.33;;;20.56;55.47
27304;BME280;14791;52.392;13.092;2022-10-22T07:49:08;100816.44;;;20.62;55.40
27304;BME280;14791;52.392;13.092;2022-10-22T07:51:37;100819.86;;;20.68;55.29
27304;BME280;14791;52.392;13.092;2022-10-22T07:54:05;100823.97;;;20.72;55.21
27304;BME280;14791;52.392;13.092;2022-10-22T07:56:34;100826.72;;;20.76;55.20
27304;BME280;14791;52.392;13.092;2022-10-22T07:59:03;100824.52;;;20.79;55.12
27304;BME280;14791;52.392;13.092;2022-10-22T08:01:32;100822.36;;;20.83;55.09
27304;BME280;14791;52.392;13.092;2022-10-22T08:04:01;100826.10;;;20.86;55.04
27304;BME280;14791;52.392;13.092;2022-10-22T08:06:30;100824.78;;;20.90;54.93
27304;BME280;14791;52.392;13.092;2022-10-22T08:08:59;100822.40;;;20.91;54.75
27304;BME280;14791;52.392;13.092;2022-10-22T08:11:28;100822.40;;;20.91;54.69
27304;BME280;14791;52.392;13.092;2022-10-22T08:13:58;100830.55;;;20.91;54.68
27304;BME280;14791;52.392;13.092;2022-10-22T08:16:26;100827.97;;;20.90;54.64
27304;BME280;14791;52.392;13.092;2022-10-22T08:18:55;100832.56;;;20.89;54.65
27304;BME280;14791;52.392;13.092;2022-10-22T08:21:25;100835.42;;;20.88;54.71
27304;BME280;14791;52.392;13.092;2022-10-22T08:23:54;100835.75;;;20.85;54.75
27304;BME280;14791;52.392;13.092;2022-10-22T08:26:23;100840.00;;;20.83;54.89
27304;BME280;14791;52.392;13.092;2022-10-22T08:28:52;100841.00;;;20.82;55.00
27304;BME280;14791;52.392;13.092;2022-10-22T08:31:21;100841.36;;;20.83;55.04
27304;BME280;14791;52.392;13.092;2022-10-22T08:33:50;100845.91;;;20.82;55.12
27304;BME280;14791;52.392;13.092;2022-10-22T08:36:19;100846.79;;;20.83;55.26
27304;BME280;14791;52.392;13.092;2022-10-22T08:38:47;100850.17;;;20.85;55.34
27304;BME280;14791;52.392;13.092;2022-10-22T08:41:19;100849.51;;;20.87;55.43
27304;BME280;14791;52.392;13.092;2022-10-22T08:44:08;100850.06;;;20.91;55.48
27304;BME280;14791;52.392;13.092;2022-10-22T08:49:11;100851.64;;;20.97;55.50
27304;BME280;14791;52.392;13.092;2022-10-22T08:51:39;100853.00;;;21.01;55.42
27304;BME280;14791;52.392;13.092;2022-10-22T08:54:24;100857.77;;;21.03;55.35
27304;BME280;14791;52.392;13.092;2022-10-22T09:00:01;100871.38;;;21.08;55.41
27304;BME280;14791;52.392;13.092;2022-10-22T09:03:51;100863.20;;;21.03;55.61
27304;BME280;14791;52.392;13.092;2022-10-22T09:05:39;100867.64;;;21.09;55.72
27304;BME280;14791;52.392;13.092;2022-10-22T09:08:12;100873.77;;;21.11;55.75
27304;BME280;14791;52.392;13.092;2022-10-22T09:10:50;100871.09;;;21.15;55.75
27304;BME280;14791;52.392;13.092;2022-10-22T09:13:20;100871.09;;;21.19;55.75
27304;BME280;14791;52.392;13.092;2022-10-22T09:15:57;100873.33;;;21.23;55.68
27304;BME280;14791;52.392;13.092;2022-10-22T09:18:50;100874.72;;;21.28;55.57
27304;BME280;14791;52.392;13.092;2022-10-22T09:21:33;100873.39;;;21.32;55.53
27304;BME280;14791;52.392;13.092;2022-10-22T09:26:51;100889.84;;;21.30;55.42
27304;BME280;14791;52.392;13.092;2022-10-22T09:29:23;100893.22;;;21.28;55.55
27304;BME280;14791;52.392;13.092;2022-10-22T09:31:52;100887.97;;;21.31;55.61
27304;BME280;14791;52.392;13.092;2022-10-22T09:34:21;100889.18;;;21.32;55.62
27304;BME280;14791;52.392;13.092;2022-10-22T09:37:04;100889.91;;;21.38;55.62
27304;BME280;14791;52.392;13.092;2022-10-22T09:39:39;100889.28;;;21.44;55.70
27304;BME280;14791;52.392;13.092;2022-10-22T09:42:10;100896.10;;;21.49;55.66
27304;BME280;14791;52.392;13.092;2022-10-22T09:44:40;100894.77;;;21.53;55.53
27304;BME280;14791;52.392;13.092;2022-10-22T09:47:31;100890.36;;;21.56;55.56
27304;BME280;14791;52.392;13.092;2022-10-22T09:52:39;100893.62;;;21.63;55.61
27304;BME280;14791;52.392;13.092;2022-10-22T09:55:17;100894.16;;;21.67;55.56
27304;BME280;14791;52.392;13.092;2022-10-22T09:57:53;100897.75;;;21.72;55.47
27304;BME280;14791;52.392;13.092;2022-10-22T10:00:18;100894.19;;;21.75;55.41
27304;BME280;14791;52.392;13.092;2022-10-22T10:02:47;100895.20;;;21.78;55.38
27304;BME280;14791;52.392;13.092;2022-10-22T10:05:24;100892.51;;;21.82;55.32
27304;BME280;14791;52.392;13.092;2022-10-22T10:07:51;100901.02;;;21.87;55.21
27304;BME280;14791;52.392;13.092;2022-10-22T10:10:26;100903.92;;;21.90;55.10
27304;BME280;14791;52.392;13.092;2022-10-22T10:27:38;100909.46;;;21.76;55.06
27304;BME280;14791;52.392;13.092;2022-10-22T10:30:21;100901.64;;;21.73;55.05
27304;BME280;14791;52.392;13.092;2022-10-22T10:38:14;100913.19;;;21.71;54.98
27304;BME280;14791;52.392;13.092;2022-10-22T10:40:58;100903.34;;;21.70;55.08
27304;BME280;14791;52.392;13.092;2022-10-22T10:46:32;100901.47;;;21.71;55.12
27304;BME280;14791;52.392;13.092;2022-10-22T10:49:07;100906.39;;;21.71;55.21
27304;BME280;14791;52.392;13.092;2022-10-22T11:00:03;100906.08;;;21.78;54.95
27304;BME280;14791;52.392;13.092;2022-10-22T11:03:01;100909.16;;;21.79;54.86
27304;BME280;14791;52.392;13.092;2022-10-22T11:06:00;100908.97;;;21.81;54.86
27304;BME280;14791;52.392;13.092;2022-10-22T11:08:33;100911.03;;;21.79;54.93
27304;BME280;14791;52.392;13.092;2022-10-22T11:11:53;100910.16;;;21.78;54.90
27304;BME280;14791;52.392;13.092;2022-10-22T11:14:04;100899.98;;;21.80;54.89
27304;BME280;14791;52.392;13.092;2022-10-22T11:16:38;100901.36;;;21.84;54.82
27304;BME280;14791;52.392;13.092;2022-10-22T11:21:46;100901.38;;;21.88;54.71
27304;BME280;14791;52.392;13.092;2022-10-22T11:24:19;100902.73;;;21.93;54.59
27304;BME280;14791;52.392;13.092;2022-10-22T11:29:43;100905.50;;;22.01;54.47
27304;BME280;14791;52.392;13.092;2022-10-22T11:32:15;100908.55;;;22.02;54.45
27304;BME280;14791;52.392;13.092;2022-10-22T11:34:46;100904.64;;;22.04;54.35
27304;BME280;14791;52.392;13.092;2022-10-22T11:37:16;100903.82;;;22.08;54.27
27304;BME280;14791;52.392;13.092;2022-10-22T11:40:02;100898.37;;;22.12;54.23
27304;BME280;14791;52.392;13.092;2022-10-22T11:42:45;100904.19;;;22.17;54.14
27304;BME280;14791;52.392;13.092;2022-10-22T11:48:05;100909.34;;;22.24;54.08
27304;BME280;14791;52.392;13.092;2022-10-22T11:53:35;100901.70;;;22.32;53.91
27304;BME280;14791;52.392;13.092;2022-10-22T11:56:20;100901.87;;;22.35;53.92
27304;BME280;14791;52.392;13.092;2022-10-22T11:58:42;100906.30;;;22.40;53.88
27304;BME280;14791;52.392;13.092;2022-10-22T12:01:16;100907.48;;;22.45;53.75
27304;BME280;14791;52.392;13.092;2022-10-22T12:06:28;100905.98;;;22.59;53.50
27304;BME280;14791;52.392;13.092;2022-10-22T12:09:02;100907.34;;;22.63;53.41
27304;BME280;14791;52.392;13.092;2022-10-22T12:11:37;100903.77;;;22.71;53.25
27304;BME280;14791;52.392;13.092;2022-10-22T12:14:18;100902.23;;;22.77;53.16
27304;BME280;14791;52.392;13.092;2022-10-22T12:19:43;100905.81;;;22.85;52.95
27304;BME280;14791;52.392;13.092;2022-10-22T12:24:49;100903.59;;;22.93;52.83
27304;BME280;14791;52.392;13.092;2022-10-22T12:27:21;100906.52;;;23.00;52.75
27304;BME280;14791;52.392;13.092;2022-10-22T12:29:58;100905.16;;;23.04;52.58
27304;BME280;14791;52.392;13.092;2022-10-22T12:32:36;100904.63;;;23.12;52.75
27304;BME280;14791;52.392;13.092;2022-10-22T12:35:17;100910.17;;;23.44;52.87
27304;BME280;14791;52.392;13.092;2022-10-22T12:37:54;100901.34;;;23.89;52.65
27304;BME280;14791;52.392;13.092;2022-10-22T12:40:28;100903.28;;;24.47;52.18
27304;BME280;14791;52.392;13.092;2022-10-22T12:42:59;100906.98;;;25.11;51.36
27304;BME280;14791;52.392;13.092;2022-10-22T12:45:31;100905.64;;;25.75;50.41
27304;BME280;14791;52.392;13.092;2022-10-22T12:48:07;100910.50;;;26.35;49.44
27304;BME280;14791;52.392;13.092;2022-10-22T12:50:41;100907.78;;;26.88;48.52
27304;BME280;14791;52.392;13.092;2022-10-22T12:53:16;100913.25;;;27.38;47.59
27304;BME280;14791;52.392;13.092;2022-10-22T12:55:48;100920.77;;;27.82;46.90
27304;BME280;14791;52.392;13.092;2022-10-22T12:58:19;100911.78;;;28.18;46.12
27304;BME280;14791;52.392;13.092;2022-10-22T13:00:53;100914.66;;;28.52;45.41
27304;BME280;14791;52.392;13.092;2022-10-22T13:03:30;100917.94;;;28.78;44.83
27304;BME280;14791;52.392;13.092;2022-10-22T13:06:12;100922.19;;;29.00;44.75
27304;BME280;14791;52.392;13.092;2022-10-22T13:08:42;100919.55;;;29.23;44.61
27304;BME280;14791;52.392;13.092;2022-10-22T13:11:11;100918.27;;;29.45;44.13
27304;BME280;14791;52.392;13.092;2022-10-22T13:13:42;100921.16;;;29.64;43.65
27304;BME280;14791;52.392;13.092;2022-10-22T13:16:18;100930.69;;;29.81;43.25
27304;BME280;14791;52.392;13.092;2022-10-22T13:18:48;100927.42;;;29.98;42.94
27304;BME280;14791;52.392;13.092;2022-10-22T13:23:58;100929.87;;;30.19;42.41
27304;BME280;14791;52.392;13.092;2022-10-22T13:26:36;100935.38;;;30.26;42.09
27304;BME280;14791;52.392;13.092;2022-10-22T13:29:09;100929.22;;;30.30;42.02
27304;BME280;14791;52.392;13.092;2022-10-22T13:31:46;100929.00;;;30.32;41.65
27304;BME280;14791;52.392;13.092;2022-10-22T13:34:18;100927.72;;;30.35;41.57
27304;BME280;14791;52.392;13.092;2022-10-22T13:36:48;100928.34;;;30.37;41.20
27304;BME280;14791;52.392;13.092;2022-10-22T13:39:18;100936.70;;;30.39;40.88
27304;BME280;14791;52.392;13.092;2022-10-22T13:41:48;100941.88;;;30.38;40.52
27304;BME280;14791;52.392;13.092;2022-10-22T13:44:18;100934.27;;;30.34;40.17
27304;BME280;14791;52.392;13.092;2022-10-22T13:46:47;100942.06;;;30.27;39.97
27304;BME280;14791;52.392;13.092;2022-10-22T13:49:19;100943.04;;;30.17;39.79
27304;BME280;14791;52.392;13.092;2022-10-22T13:51:50;100936.95;;;30.02;39.65
27304;BME280;14791;52.392;13.092;2022-10-22T13:54:22;100943.81;;;29.79;39.58
27304;BME280;14791;52.392;13.092;2022-10-22T13:56:51;100944.36;;;29.59;39.77
27304;BME280;14791;52.392;13.092;2022-10-22T13:59:20;100944.50;;;29.41;40.21
27304;BME280;14791;52.392;13.092;2022-10-22T14:01:49;100947.48;;;29.33;40.53
27304;BME280;14791;52.392;13.092;2022-10-22T14:04:18;100947.16;;;29.32;40.79
27304;BME280;14791;52.392;13.092;2022-10-22T14:06:47;100943.67;;;29.34;41.02
27304;BME280;14791;52.392;13.092;2022-10-22T14:09:18;100949.37;;;29.39;40.97
27304;BME280;14791;52.392;13.092;2022-10-22T14:11:47;100950.20;;;29.46;40.79
27304;BME280;14791;52.392;13.092;2022-10-22T14:14:16;100956.34;;;29.48;40.51
27304;BME280;14791;52.392;13.092;2022-10-22T14:16:45;100952.95;;;29.46;40.24
27304;BME280;14791;52.392;13.092;2022-10-22T14:19:15;100953.30;;;29.41;40.07